createdAt,value
2017-02-06T00:00:23.374Z,75.28
2017-02-06T00:01:38.954Z,75.28
2017-02-06T00:02:53.612Z,75
2017-02-06T00:04:11.653Z,75.28
2017-02-06T00:05:26.383Z,75.57
2017-02-06T00:06:42.044Z,75.67
2017-02-06T00:07:57.887Z,75.47
2017-02-06T00:09:12.689Z,75.67
2017-02-06T00:10:28.295Z,76.32
2017-02-06T00:11:44.750Z,75.47
2017-02-06T00:13:00.983Z,75.57
2017-02-06T00:14:15.484Z,75.57
2017-02-06T00:15:30.933Z,75.47
2017-02-06T00:16:47.015Z,75.95
2017-02-06T00:18:02.012Z,75.85
2017-02-06T00:19:17.206Z,75.95
2017-02-06T00:20:32.991Z,75.95
2017-02-06T00:21:48.191Z,75.95
2017-02-06T00:23:03.911Z,76.14
2017-02-06T00:24:19.868Z,76.04
2017-02-06T00:25:35.300Z,75.95
2017-02-06T00:26:50.747Z,76.32
2017-02-06T00:28:06.350Z,76.32
2017-02-06T00:29:20.354Z,76.52
2017-02-06T00:30:36.006Z,76.04
2017-02-06T00:32:23.004Z,76.04
2017-02-06T00:33:38.243Z,75.95
2017-02-06T00:34:56.150Z,75.91
2017-02-06T00:36:12.273Z,75.81
2017-02-06T00:37:26.313Z,75.47
2017-02-06T00:38:50.627Z,75.24
2017-02-06T00:40:05.666Z,75.15
2017-02-06T00:41:21.953Z,75.19
2017-02-06T00:42:36.974Z,75.47
2017-02-06T00:43:51.454Z,75.43
2017-02-06T00:45:05.590Z,75.43
2017-02-06T00:46:20.018Z,75.72
2017-02-06T00:47:35.580Z,75.62
2017-02-06T00:48:50.877Z,75.62
2017-02-06T00:50:06.237Z,75.72
2017-02-06T00:51:20.346Z,75.53
2017-02-06T00:52:35.635Z,75.53
2017-02-06T00:53:50.728Z,75.62
2017-02-06T00:55:06.031Z,75.72
2017-02-06T00:56:20.638Z,75.72
2017-02-06T00:57:35.486Z,75.62
2017-02-06T00:58:50.039Z,75.81
2017-02-06T01:00:04.492Z,75.81
2017-02-06T01:01:18.788Z,75.43
2017-02-06T01:02:33.857Z,75.91
2017-02-06T01:03:47.976Z,75.91
2017-02-06T01:05:02.415Z,75.91
2017-02-06T01:06:17.103Z,76.01
2017-02-06T01:07:32.374Z,75.81
2017-02-06T01:08:46.490Z,76.1
2017-02-06T01:10:00.768Z,76.01
2017-02-06T01:11:14.849Z,75.91
2017-02-06T01:12:29.704Z,75.91
2017-02-06T01:13:43.792Z,76.1
2017-02-06T01:14:58.243Z,76.01
2017-02-06T01:16:12.391Z,76.39
2017-02-06T01:17:27.720Z,76.29
2017-02-06T01:18:41.907Z,76.48
2017-02-06T01:19:55.916Z,76.76
2017-02-06T01:21:10.023Z,76.95
2017-02-06T01:22:23.967Z,76.86
2017-02-06T01:23:39.011Z,76.76
2017-02-06T01:24:53.533Z,77.05
2017-02-06T01:26:07.734Z,76.95
2017-02-06T01:27:22.135Z,76.48
2017-02-06T01:28:36.653Z,76.39
2017-02-06T01:29:51.034Z,76.48
2017-02-06T01:31:06.615Z,76.2
2017-02-06T01:32:21.256Z,75.91
2017-02-06T01:33:35.303Z,76.01
2017-02-06T01:34:50.400Z,76.29
2017-02-06T01:36:04.471Z,76.1
2017-02-06T01:37:19.476Z,76.01
2017-02-06T01:38:33.432Z,76.39
2017-02-06T01:39:48.053Z,75.91
2017-02-06T01:41:02.024Z,76.1
2017-02-06T01:42:16.188Z,75.91
2017-02-06T01:43:30.117Z,75.81
2017-02-06T01:44:44.226Z,76.01
2017-02-06T01:45:59.227Z,76.1
2017-02-06T01:47:14.339Z,76.29
2017-02-06T01:48:29.125Z,76.29
2017-02-06T01:49:43.257Z,76.39
2017-02-06T01:50:57.715Z,76.1
2017-02-06T01:52:14.508Z,76.1
2017-02-06T01:53:28.438Z,76.29
2017-02-06T01:54:42.751Z,76.29
2017-02-06T01:55:58.257Z,76.48
2017-02-06T01:57:13.035Z,76.48
2017-02-06T01:58:27.565Z,76.2
2017-02-06T01:59:41.557Z,75.91
2017-02-06T02:00:56.232Z,76.1
2017-02-06T02:02:10.156Z,75.72
2017-02-06T02:03:24.760Z,75.91
2017-02-06T02:04:38.742Z,75.81
2017-02-06T02:05:53.660Z,75.81
2017-02-06T02:07:09.967Z,76.29
2017-02-06T02:08:24.504Z,76.1
2017-02-06T02:09:44.618Z,76.01
2017-02-06T02:11:03.063Z,76.1
2017-02-06T02:12:17.773Z,76.1
2017-02-06T02:13:32.523Z,75.91
2017-02-06T02:14:46.931Z,75.43
2017-02-06T02:16:01.679Z,75.53
2017-02-06T02:17:15.645Z,75.43
2017-02-06T02:18:29.824Z,75.81
2017-02-06T02:19:43.888Z,75.62
2017-02-06T02:20:58.060Z,75.91
2017-02-06T02:22:12.143Z,75.34
2017-02-06T02:23:26.274Z,75.81
2017-02-06T02:24:40.675Z,75.53
2017-02-06T02:25:55.376Z,75.72
2017-02-06T02:27:09.412Z,75.62
2017-02-06T02:28:23.619Z,75.81
2017-02-06T02:29:38.287Z,75.43
2017-02-06T02:30:53.277Z,75.81
2017-02-06T02:32:07.699Z,75.24
2017-02-06T02:33:22.793Z,75.43
2017-02-06T02:34:37.296Z,75.43
2017-02-06T02:35:52.183Z,75.72
2017-02-06T02:37:06.346Z,75.72
2017-02-06T02:38:20.311Z,75.53
2017-02-06T02:39:34.504Z,75.81
2017-02-06T02:40:49.077Z,75.62
2017-02-06T02:42:03.674Z,75.72
2017-02-06T02:43:18.670Z,75.43
2017-02-06T02:44:33.237Z,75.72
2017-02-06T02:45:47.634Z,75.62
2017-02-06T02:47:02.363Z,75.62
2017-02-06T02:48:16.857Z,75.43
2017-02-06T02:49:31.475Z,75.24
2017-02-06T02:50:45.871Z,75.24
2017-02-06T02:52:00.400Z,75.62
2017-02-06T02:53:14.401Z,75.68
2017-02-06T02:54:28.500Z,75.78
2017-02-06T02:55:42.668Z,75.87
2017-02-06T02:56:56.751Z,75.43
2017-02-06T02:58:10.907Z,76.06
2017-02-06T02:59:25.534Z,76.06
2017-02-06T03:00:39.488Z,75.87
2017-02-06T03:01:53.678Z,76.06
2017-02-06T03:03:08.196Z,76.25
2017-02-06T03:04:22.428Z,76.06
2017-02-06T03:05:36.393Z,75.87
2017-02-06T03:06:50.513Z,76.25
2017-02-06T03:08:04.490Z,75.96
2017-02-06T03:09:20.844Z,76.25
2017-02-06T03:10:35.346Z,76.06
2017-02-06T03:11:49.557Z,75.4
2017-02-06T03:13:03.505Z,75.31
2017-02-06T03:14:17.696Z,76.25
2017-02-06T03:15:32.231Z,76.06
2017-02-06T03:16:46.791Z,76.06
2017-02-06T03:18:00.822Z,75.87
2017-02-06T03:19:15.034Z,75.78
2017-02-06T03:20:28.950Z,76.15
2017-02-06T03:21:43.138Z,75.4
2017-02-06T03:22:59.501Z,75.87
2017-02-06T03:24:39.604Z,75.87
2017-02-06T03:25:54.952Z,76.25
2017-02-06T03:27:10.277Z,75.4
2017-02-06T03:28:25.033Z,75.96
2017-02-06T03:29:39.852Z,75.87
2017-02-06T03:30:59.224Z,76.06
2017-02-06T03:32:15.350Z,75.87
2017-02-06T03:33:29.824Z,76.25
2017-02-06T03:34:45.131Z,76.34
2017-02-06T03:35:59.153Z,76.44
2017-02-06T03:37:13.535Z,76.25
2017-02-06T03:38:27.503Z,75.96
2017-02-06T03:39:41.591Z,75.96
2017-02-06T03:40:55.543Z,76.25
2017-02-06T03:42:09.712Z,76.25
2017-02-06T03:43:24.015Z,76.34
2017-02-06T03:44:38.154Z,76.44
2017-02-06T03:45:52.558Z,76.54
2017-02-06T03:47:06.659Z,76.73
2017-02-06T03:48:20.601Z,76.92
2017-02-06T03:49:35.474Z,76.73
2017-02-06T03:50:50.861Z,76.73
2017-02-06T03:52:04.966Z,76.54
2017-02-06T03:53:19.081Z,76.63
2017-02-06T03:54:33.214Z,76.63
2017-02-06T03:55:48.335Z,76.54
2017-02-06T03:57:02.855Z,76.82
2017-02-06T03:58:16.816Z,77.01
2017-02-06T03:59:31.512Z,77.2
2017-02-06T04:00:45.511Z,77.29
2017-02-06T04:02:00.446Z,77.01
2017-02-06T04:03:14.843Z,77.2
2017-02-06T04:04:29.172Z,77.2
2017-02-06T04:05:43.727Z,77.11
2017-02-06T04:06:58.315Z,77.48
2017-02-06T04:08:12.888Z,77.67
2017-02-06T04:09:27.456Z,77.48
2017-02-06T04:10:41.680Z,77.39
2017-02-06T04:11:56.361Z,77.54
2017-02-06T04:13:10.757Z,77.29
2017-02-06T04:14:25.159Z,77.58
2017-02-06T04:15:39.609Z,77.58
2017-02-06T04:16:53.700Z,77.48
2017-02-06T04:18:07.661Z,77.67
2017-02-06T04:19:22.206Z,77.83
2017-02-06T04:20:36.969Z,77.86
2017-02-06T04:21:51.544Z,77.39
2017-02-06T04:23:05.533Z,77.54
2017-02-06T04:24:20.102Z,77.83
2017-02-06T04:25:34.661Z,77.96
2017-02-06T04:26:51.399Z,77.35
2017-02-06T04:28:05.348Z,77.58
2017-02-06T04:29:19.916Z,77.73
2017-02-06T04:30:33.893Z,77.54
2017-02-06T04:31:48.089Z,77.64
2017-02-06T04:33:03.135Z,77.64
2017-02-06T04:34:18.414Z,77.64
2017-02-06T04:35:32.856Z,77.64
2017-02-06T04:36:47.614Z,77.77
2017-02-06T04:38:02.632Z,77.86
2017-02-06T04:39:17.598Z,77.77
2017-02-06T04:40:32.368Z,77.64
2017-02-06T04:41:47.228Z,77.64
2017-02-06T04:43:01.650Z,77.73
2017-02-06T04:44:16.204Z,77.73
2017-02-06T04:45:30.939Z,77.64
2017-02-06T04:46:45.729Z,78.02
2017-02-06T04:48:00.276Z,77.54
2017-02-06T04:49:14.856Z,77.25
2017-02-06T04:50:29.685Z,78.02
2017-02-06T04:51:45.268Z,77.83
2017-02-06T04:52:59.444Z,78.3
2017-02-06T04:54:13.543Z,78.11
2017-02-06T04:55:27.475Z,78.2
2017-02-06T04:56:41.618Z,77.64
2017-02-06T04:57:56.306Z,77.77
2017-02-06T04:59:10.468Z,77.54
2017-02-06T05:00:24.901Z,77.92
2017-02-06T05:01:39.488Z,77.45
2017-02-06T05:02:53.521Z,77.64
2017-02-06T05:04:07.909Z,78.11
2017-02-06T05:05:21.869Z,77.39
2017-02-06T05:06:36.450Z,77.73
2017-02-06T05:07:50.852Z,77.64
2017-02-06T05:09:04.994Z,77.58
2017-02-06T05:10:20.172Z,77.73
2017-02-06T05:11:34.770Z,77.77
2017-02-06T05:12:48.983Z,78.58
2017-02-06T05:14:03.107Z,78.77
2017-02-06T05:15:17.576Z,78.81
2017-02-06T05:16:32.413Z,78.91
2017-02-06T05:17:46.905Z,78.34
2017-02-06T05:19:01.084Z,78.15
2017-02-06T05:20:15.052Z,78.2
2017-02-06T05:21:29.340Z,78.87
2017-02-06T05:22:43.660Z,78.96
2017-02-06T05:23:58.295Z,78.39
2017-02-06T05:25:12.895Z,78.39
2017-02-06T05:26:27.458Z,78.02
2017-02-06T05:27:41.980Z,78.39
2017-02-06T05:28:57.049Z,78.49
2017-02-06T05:30:11.759Z,78.3
2017-02-06T05:31:27.282Z,78.39
2017-02-06T05:32:41.817Z,78.3
2017-02-06T05:33:55.948Z,79.72
2017-02-06T05:35:11.214Z,79.76
2017-02-06T05:36:25.877Z,76.92
2017-02-06T05:37:41.477Z,76.54
2017-02-06T05:38:55.938Z,77.29
2017-02-06T05:40:10.518Z,77.77
2017-02-06T05:41:24.802Z,77.77
2017-02-06T05:42:39.006Z,77.11
2017-02-06T05:43:55.456Z,77.2
2017-02-06T05:45:09.415Z,77.39
2017-02-06T05:46:23.921Z,77.58
2017-02-06T05:47:39.141Z,77.58
2017-02-06T05:48:53.673Z,77.64
2017-02-06T05:50:08.253Z,77.64
2017-02-06T05:51:22.340Z,77.73
2017-02-06T05:52:36.786Z,77.45
2017-02-06T05:53:51.730Z,77.35
2017-02-06T05:55:06.157Z,77.92
2017-02-06T05:56:20.502Z,77.92
2017-02-06T05:57:34.481Z,77.64
2017-02-06T05:58:49.130Z,78.02
2017-02-06T06:00:03.512Z,78.11
2017-02-06T06:01:18.274Z,78.3
2017-02-06T06:02:57.013Z,78.02
2017-02-06T06:04:11.710Z,78.39
2017-02-06T06:05:27.176Z,78.39
2017-02-06T06:06:42.339Z,78.11
2017-02-06T06:07:56.934Z,78.3
2017-02-06T06:09:12.592Z,78.3
2017-02-06T06:10:27.317Z,78.2
2017-02-06T06:11:41.519Z,78.67
2017-02-06T06:12:56.672Z,78.77
2017-02-06T06:14:12.239Z,79.06
2017-02-06T06:15:28.857Z,78.49
2017-02-06T06:16:45.259Z,78.87
2017-02-06T06:23:30.738Z,78.58
2017-02-06T06:24:45.270Z,78.87
2017-02-06T06:25:59.938Z,78.58
2017-02-06T06:27:15.458Z,78.58
2017-02-06T06:29:14.434Z,78.96
2017-02-06T06:30:30.131Z,78.87
2017-02-06T06:31:44.108Z,79.06
2017-02-06T06:32:57.590Z,78.77
2017-02-06T06:34:11.226Z,78.67
2017-02-06T06:35:24.681Z,78.39
2017-02-06T06:36:38.698Z,79.06
2017-02-06T06:37:52.512Z,78.87
2017-02-06T06:39:06.140Z,78.49
2017-02-06T06:40:19.677Z,78.67
2017-02-06T06:41:33.289Z,78.96
2017-02-06T06:42:47.209Z,78.87
2017-02-06T06:44:01.255Z,78.77
2017-02-06T06:45:16.466Z,78.58
2017-02-06T06:46:30.003Z,78.87
2017-02-06T06:47:43.466Z,78.96
2017-02-06T06:48:59.050Z,78.96
2017-02-06T06:50:14.630Z,78.87
2017-02-06T06:51:28.159Z,78.58
2017-02-06T06:52:41.748Z,78.87
2017-02-06T06:53:56.101Z,78.87
2017-02-06T06:55:09.743Z,78.77
2017-02-06T06:56:24.600Z,78.77
2017-02-06T06:57:38.172Z,78.77
2017-02-06T06:58:51.613Z,78.67
2017-02-06T07:00:05.244Z,78.77
2017-02-06T07:01:18.721Z,78.58
2017-02-06T07:02:32.717Z,78.58
2017-02-06T07:03:46.284Z,78.77
2017-02-06T07:05:02.586Z,78.67
2017-02-06T07:06:16.219Z,78.67
2017-02-06T07:07:30.719Z,78.58
2017-02-06T07:08:44.959Z,78.49
2017-02-06T07:09:58.967Z,78.67
2017-02-06T07:11:12.545Z,78.58
2017-02-06T07:12:26.151Z,78.67
2017-02-06T07:13:40.882Z,78.58
2017-02-06T07:14:56.147Z,78.77
2017-02-06T07:16:09.812Z,78.77
2017-02-06T07:17:24.383Z,78.77
2017-02-06T07:18:38.743Z,79.06
2017-02-06T07:20:05.363Z,78.96
2017-02-06T07:21:19.422Z,78.39
2017-02-06T07:22:32.847Z,78.11
2017-02-06T07:23:47.758Z,78.2
2017-02-06T07:25:02.132Z,78.3
2017-02-06T07:26:16.207Z,78.77
2017-02-06T07:27:30.515Z,78.11
2017-02-06T07:28:44.154Z,78.49
2017-02-06T07:29:57.614Z,77.73
2017-02-06T07:31:11.662Z,78.43
2017-02-06T07:32:25.575Z,77.83
2017-02-06T07:33:39.419Z,78.02
2017-02-06T07:34:52.887Z,78.2
2017-02-06T07:36:06.954Z,78.11
2017-02-06T07:37:20.863Z,77.83
2017-02-06T07:38:34.439Z,78.2
2017-02-06T07:39:48.622Z,77.25
2017-02-06T07:41:02.615Z,78.11
2017-02-06T07:42:16.319Z,78.02
2017-02-06T07:43:30.374Z,77.86
2017-02-06T07:44:44.706Z,77.29
2017-02-06T07:45:58.641Z,77.67
2017-02-06T07:47:12.575Z,77.48
2017-02-06T07:48:26.901Z,77.58
2017-02-06T07:49:40.844Z,77.29
2017-02-06T07:50:54.465Z,77.11
2017-02-06T07:52:08.654Z,76.82
2017-02-06T07:53:22.328Z,76.82
2017-02-06T07:54:36.744Z,77.01
2017-02-06T07:55:50.413Z,77.11
2017-02-06T07:57:03.877Z,76.54
2017-02-06T07:58:18.203Z,76.73
2017-02-06T07:59:32.139Z,76.44
2017-02-06T08:01:14.901Z,76.82
2017-02-06T08:02:28.487Z,76.54
2017-02-06T08:03:42.013Z,76.25
2017-02-06T08:04:55.549Z,76.54
2017-02-06T08:06:09.022Z,76.25
2017-02-06T08:07:23.084Z,76.15
2017-02-06T08:08:36.850Z,75.4
2017-02-06T08:09:50.906Z,75.68
2017-02-06T08:11:04.377Z,75.4
2017-02-06T08:12:18.434Z,75.4
2017-02-06T08:13:31.914Z,75.59
2017-02-06T08:14:45.863Z,75.31
2017-02-06T08:15:59.358Z,74.64
2017-02-06T08:17:13.413Z,74.54
2017-02-06T08:18:26.894Z,74.54
2017-02-06T08:19:40.530Z,74.35
2017-02-06T08:20:54.771Z,74.35
2017-02-06T08:22:10.503Z,74.45
2017-02-06T08:23:24.440Z,74.35
2017-02-06T08:24:58.281Z,74.16
2017-02-06T08:26:12.354Z,74.54
2017-02-06T08:27:26.237Z,73.97
2017-02-06T08:28:40.810Z,74.16
2017-02-06T08:29:54.713Z,74.16
2017-02-06T08:31:08.361Z,74.64
2017-02-06T08:32:23.561Z,73.97
2017-02-06T08:33:37.589Z,74.01
2017-02-06T08:34:53.311Z,74.07
2017-02-06T08:36:07.601Z,74.45
2017-02-06T08:37:21.595Z,73.97
2017-02-06T08:38:35.072Z,74.01
2017-02-06T08:39:48.594Z,73.63
2017-02-06T08:41:02.449Z,73.72
2017-02-06T08:42:16.111Z,73.72
2017-02-06T08:43:30.240Z,73.54
2017-02-06T08:44:43.737Z,73.07
2017-02-06T08:45:57.191Z,73.25
2017-02-06T08:47:10.853Z,73.16
2017-02-06T08:48:24.787Z,72.88
2017-02-06T08:49:38.619Z,72.49
2017-02-06T08:50:52.081Z,72.68
2017-02-06T08:52:06.065Z,72.4
2017-02-06T08:53:19.985Z,72.02
2017-02-06T08:54:34.400Z,72.02
2017-02-06T08:55:48.525Z,71.83
2017-02-06T08:57:02.465Z,71.92
2017-02-06T08:58:15.956Z,71.83
2017-02-06T08:59:29.894Z,71.83
2017-02-06T09:00:43.334Z,71.45
2017-02-06T09:01:57.183Z,70.59
2017-02-06T09:03:10.707Z,71.45
2017-02-06T09:04:24.666Z,71.45
2017-02-06T09:05:38.145Z,71.73
2017-02-06T09:06:52.088Z,70.82
2017-02-06T09:08:05.788Z,70.54
2017-02-06T09:09:19.803Z,70.54
2017-02-06T09:10:34.078Z,70.73
2017-02-06T09:11:47.618Z,70.35
2017-02-06T09:13:01.428Z,70.06
2017-02-06T09:14:15.292Z,70.59
2017-02-06T09:15:28.738Z,71.07
2017-02-06T09:16:42.737Z,70.88
2017-02-06T09:17:56.589Z,70.5
2017-02-06T09:19:10.309Z,70.21
2017-02-06T09:20:24.187Z,70.63
2017-02-06T09:21:37.777Z,70.35
2017-02-06T09:22:51.257Z,69.87
2017-02-06T09:24:05.290Z,70.35
2017-02-06T09:25:19.103Z,69.87
2017-02-06T09:26:32.653Z,70.15
2017-02-06T09:27:46.114Z,70.06
2017-02-06T09:29:08.908Z,69.96
2017-02-06T09:30:22.430Z,69.21
2017-02-06T09:31:35.862Z,69.4
2017-02-06T09:32:49.833Z,69.11
2017-02-06T09:34:03.673Z,68.73
2017-02-06T09:35:17.272Z,68.83
2017-02-06T09:36:31.419Z,68.92
2017-02-06T09:37:44.971Z,68.73
2017-02-06T09:39:00.768Z,69.02
2017-02-06T09:40:14.256Z,68.73
2017-02-06T09:41:27.839Z,68.92
2017-02-06T09:42:41.560Z,68.35
2017-02-06T09:43:55.102Z,68.54
2017-02-06T09:45:09.214Z,68.92
2017-02-06T09:46:22.735Z,68.92
2017-02-06T09:47:36.180Z,68.92
2017-02-06T09:48:50.101Z,68.16
2017-02-06T09:50:03.538Z,67.88
2017-02-06T09:51:35.673Z,67.63
2017-02-06T09:52:54.146Z,67.82
2017-02-06T09:54:12.307Z,67.34
2017-02-06T09:55:33.483Z,67.34
2017-02-06T09:56:56.999Z,67.53
2017-02-06T09:58:15.712Z,67.63
2017-02-06T09:59:29.166Z,67.63
2017-02-06T10:00:42.953Z,67.15
2017-02-06T10:01:56.430Z,66.39
2017-02-06T10:03:10.498Z,66.2
2017-02-06T10:04:24.388Z,66.3
2017-02-06T10:05:37.988Z,66.01
2017-02-06T10:06:52.616Z,66.58
2017-02-06T10:08:22.801Z,66.11
2017-02-06T10:09:36.446Z,66.01
2017-02-06T10:10:50.482Z,65.82
2017-02-06T10:12:04.587Z,65.82
2017-02-06T10:13:18.860Z,65.54
2017-02-06T10:14:32.934Z,65.16
2017-02-06T10:15:47.671Z,65.09
2017-02-06T10:17:01.258Z,65.19
2017-02-06T10:18:14.725Z,65
2017-02-06T10:19:28.336Z,64.24
2017-02-06T10:20:41.778Z,65.09
2017-02-06T10:21:56.074Z,65
2017-02-06T10:23:09.516Z,64.34
2017-02-06T10:24:23.539Z,64.14
2017-02-06T10:27:53.120Z,63.1
2017-02-06T10:29:06.564Z,62.91
2017-02-06T10:30:20.573Z,62.94
2017-02-06T10:31:34.189Z,62.37
2017-02-06T10:32:48.263Z,62.46
2017-02-06T10:34:02.248Z,62.08
2017-02-06T10:35:15.936Z,61.9
2017-02-06T10:36:31.348Z,61.9
2017-02-06T10:37:45.001Z,61.42
2017-02-06T10:38:58.965Z,61.61
2017-02-06T10:40:12.875Z,61.42
2017-02-06T10:41:26.376Z,61.61
2017-02-06T10:42:40.888Z,61.32
2017-02-06T10:43:54.375Z,61.42
2017-02-06T10:45:09.020Z,61.8
2017-02-06T10:46:22.830Z,61.13
2017-02-06T10:47:37.031Z,61.13
2017-02-06T10:48:50.810Z,61.32
2017-02-06T10:50:04.592Z,61.04
2017-02-06T10:51:19.655Z,60.88
2017-02-06T10:52:38.846Z,60.41
2017-02-06T10:54:13.716Z,60.31
2017-02-06T10:55:30.140Z,60.31
2017-02-06T10:56:50.626Z,59.93
2017-02-06T10:58:06.743Z,60.21
2017-02-06T10:59:24.198Z,59.93
2017-02-06T11:00:39.249Z,60.12
2017-02-06T11:01:53.137Z,60.21
2017-02-06T11:03:07.663Z,60.41
2017-02-06T11:04:21.550Z,60.12
2017-02-06T11:05:35.174Z,59.83
2017-02-06T11:06:49.509Z,59.83
2017-02-06T11:08:03.563Z,59.74
2017-02-06T11:09:17.843Z,59.74
2017-02-06T11:10:40.548Z,59.64
2017-02-06T11:11:54.536Z,59.55
2017-02-06T11:13:08.879Z,59.64
2017-02-06T11:14:22.881Z,59.74
2017-02-06T11:15:36.770Z,59.74
2017-02-06T11:16:50.380Z,59.74
2017-02-06T11:18:04.578Z,59.83
2017-02-06T11:19:18.131Z,59.64
2017-02-06T11:20:31.645Z,59.45
2017-02-06T11:21:45.367Z,59.74
2017-02-06T11:22:58.876Z,59.93
2017-02-06T11:24:13.277Z,60.31
2017-02-06T11:25:27.645Z,60.31
2017-02-06T11:26:41.197Z,60.31
2017-02-06T11:27:55.083Z,59.83
2017-02-06T11:29:09.987Z,60.31
2017-02-06T11:30:24.133Z,59.55
2017-02-06T11:31:38.366Z,60.12
2017-02-06T11:32:51.839Z,60.12
2017-02-06T11:34:06.840Z,59.93
2017-02-06T11:35:20.436Z,59.45
2017-02-06T11:36:34.315Z,60.31
2017-02-06T11:37:48.515Z,60.5
2017-02-06T11:39:02.202Z,60.5
2017-02-06T11:40:15.712Z,60.69
2017-02-06T11:41:29.779Z,60.6
2017-02-06T11:42:43.645Z,60.78
2017-02-06T11:43:57.672Z,60.6
2017-02-06T11:45:11.316Z,60.97
2017-02-06T11:46:25.315Z,60.6
2017-02-06T11:47:38.776Z,60.69
2017-02-06T11:48:52.601Z,60.78
2017-02-06T11:50:06.888Z,60.78
2017-02-06T11:51:20.516Z,61.26
2017-02-06T11:52:33.979Z,61.45
2017-02-06T11:53:48.519Z,60.78
2017-02-06T11:55:03.223Z,60.78
2017-02-06T11:56:17.199Z,60.69
2017-02-06T11:57:30.738Z,61.45
2017-02-06T11:58:44.432Z,61.26
2017-02-06T11:59:57.956Z,61.45
2017-02-06T12:01:11.959Z,61.83
2017-02-06T12:02:25.452Z,61.45
2017-02-06T12:03:39.102Z,61.16
2017-02-06T12:04:52.537Z,60.97
2017-02-06T12:06:06.956Z,61.16
2017-02-06T12:07:20.729Z,61.16
2017-02-06T12:08:34.728Z,60.78
2017-02-06T12:09:48.586Z,60.97
2017-02-06T12:11:02.805Z,60.41
2017-02-06T12:12:16.391Z,60.5
2017-02-06T12:13:30.261Z,60.88
2017-02-06T12:14:46.222Z,60.78
2017-02-06T12:16:00.141Z,60.41
2017-02-06T12:17:14.427Z,60.21
2017-02-06T12:18:28.329Z,60.78
2017-02-06T12:19:42.144Z,60.78
2017-02-06T12:20:55.622Z,60.69
2017-02-06T12:22:25.211Z,61.07
2017-02-06T12:23:39.735Z,60.88
2017-02-06T12:24:53.161Z,60.5
2017-02-06T12:26:07.163Z,60.6
2017-02-06T12:27:20.633Z,60.21
2017-02-06T12:28:34.197Z,60.69
2017-02-06T12:29:48.250Z,60.78
2017-02-06T12:31:01.938Z,60.78
2017-02-06T12:32:15.439Z,60.78
2017-02-06T12:33:29.014Z,60.69
2017-02-06T12:34:42.475Z,61.16
2017-02-06T12:35:57.169Z,60.41
2017-02-06T12:37:10.899Z,60.5
2017-02-06T12:38:24.892Z,60.41
2017-02-06T12:39:38.761Z,59.55
2017-02-06T12:40:52.351Z,59.83
2017-02-06T12:42:06.201Z,60.21
2017-02-06T12:43:20.690Z,60.41
2017-02-06T12:44:34.175Z,60.31
2017-02-06T12:45:47.760Z,60.78
2017-02-06T12:47:02.093Z,60.31
2017-02-06T12:48:16.388Z,60.31
2017-02-06T12:49:29.849Z,60.21
2017-02-06T12:50:43.620Z,59.93
2017-02-06T12:51:57.185Z,60.02
2017-02-06T12:53:10.806Z,60.31
2017-02-06T12:54:24.552Z,59.83
2017-02-06T12:55:38.200Z,60.21
2017-02-06T12:56:52.152Z,59.93
2017-02-06T12:58:05.846Z,60.41
2017-02-06T12:59:19.867Z,60.31
2017-02-06T13:00:34.647Z,60.6
2017-02-06T13:01:48.139Z,60.41
2017-02-06T13:03:01.794Z,60.21
2017-02-06T13:04:15.777Z,60.31
2017-02-06T13:05:29.444Z,59.83
2017-02-06T13:06:43.164Z,59.83
2017-02-06T13:07:57.570Z,59.64
2017-02-06T13:09:11.126Z,59.83
2017-02-06T13:10:25.610Z,59.64
2017-02-06T13:11:39.051Z,60.31
2017-02-06T13:12:53.419Z,59.74
2017-02-06T13:14:07.208Z,59.45
2017-02-06T13:15:21.284Z,59.74
2017-02-06T13:16:35.179Z,59.74
2017-02-06T13:17:49.183Z,59.83
2017-02-06T13:19:03.051Z,59.55
2017-02-06T13:20:17.267Z,59.39
2017-02-06T13:21:30.756Z,58.98
2017-02-06T13:22:44.367Z,60.02
2017-02-06T13:23:58.315Z,59.83
2017-02-06T13:25:12.695Z,59.55
2017-02-06T13:26:26.825Z,59.74
2017-02-06T13:27:40.383Z,59.17
2017-02-06T13:28:54.244Z,58.53
2017-02-06T13:30:07.956Z,58.88
2017-02-06T13:31:23.948Z,59.07
2017-02-06T13:32:37.524Z,58.69
2017-02-06T13:33:51.340Z,58.44
2017-02-06T13:35:05.707Z,57.84
2017-02-06T13:36:19.758Z,58.22
2017-02-06T13:37:33.542Z,58.59
2017-02-06T13:38:47.113Z,58.59
2017-02-06T13:40:15.456Z,58.88
2017-02-06T13:41:29.471Z,58.69
2017-02-06T13:42:43.255Z,58.88
2017-02-06T13:43:57.267Z,59.07
2017-02-06T13:45:11.424Z,59.07
2017-02-06T13:46:25.041Z,58.98
2017-02-06T13:47:38.531Z,59.45
2017-02-06T13:48:52.908Z,59.07
2017-02-06T13:50:06.465Z,58.98
2017-02-06T13:51:20.263Z,58.98
2017-02-06T13:52:34.150Z,58.98
2017-02-06T13:53:48.195Z,59.36
2017-02-06T13:55:02.092Z,59.55
2017-02-06T13:56:15.714Z,59.74
2017-02-06T13:57:29.204Z,59.45
2017-02-06T13:58:43.751Z,59.83
2017-02-06T13:59:57.677Z,59.64
2017-02-06T14:01:13.274Z,59.64
2017-02-06T14:02:27.163Z,59.74
2017-02-06T14:03:40.912Z,59.93
2017-02-06T14:04:54.790Z,59.64
2017-02-06T14:06:08.843Z,58.98
2017-02-06T14:07:22.681Z,58.79
2017-02-06T14:08:36.876Z,58.79
2017-02-06T14:09:50.800Z,58.79
2017-02-06T14:11:04.977Z,58.31
2017-02-06T14:12:18.577Z,58.31
2017-02-06T14:13:32.568Z,58.4
2017-02-06T14:14:46.457Z,58.79
2017-02-06T14:16:01.380Z,58.59
2017-02-06T14:17:15.035Z,58.88
2017-02-06T14:18:28.654Z,59.27
2017-02-06T14:19:42.464Z,58.88
2017-02-06T14:20:56.032Z,59.36
2017-02-06T14:22:09.573Z,59.17
2017-02-06T14:23:23.180Z,59.36
2017-02-06T14:24:37.036Z,59.64
2017-02-06T14:25:51.335Z,59.64
2017-02-06T14:27:04.845Z,59.07
2017-02-06T14:29:27.579Z,59.17
2017-02-06T14:30:41.529Z,59.07
2017-02-06T14:31:55.716Z,59.55
2017-02-06T14:33:09.789Z,59.55
2017-02-06T14:34:23.338Z,59.93
2017-02-06T14:35:36.892Z,59.74
2017-02-06T14:36:50.419Z,60.12
2017-02-06T14:38:03.943Z,60.31
2017-02-06T14:39:17.867Z,60.31
2017-02-06T14:40:31.840Z,60.31
2017-02-06T14:41:45.318Z,60.31
2017-02-06T14:42:59.743Z,60.02
2017-02-06T14:44:13.931Z,60.41
2017-02-06T14:45:27.881Z,60.21
2017-02-06T14:46:41.295Z,59.45
2017-02-06T14:47:54.839Z,59.64
2017-02-06T14:49:10.509Z,59.74
2017-02-06T14:50:24.763Z,59.45
2017-02-06T14:51:38.232Z,60.31
2017-02-06T14:52:51.970Z,60.12
2017-02-06T14:54:05.864Z,60.31
2017-02-06T14:55:19.403Z,60.41
2017-02-06T14:56:33.195Z,59.93
2017-02-06T14:57:46.800Z,59.64
2017-02-06T14:59:00.640Z,60.38
2017-02-06T15:00:14.696Z,60.47
2017-02-06T15:01:29.282Z,60.28
2017-02-06T15:02:43.259Z,60.94
2017-02-06T15:03:56.729Z,60.66
2017-02-06T15:05:10.793Z,60.75
2017-02-06T15:06:24.663Z,60.75
2017-02-06T15:07:38.217Z,60.6
2017-02-06T15:08:52.045Z,61.07
2017-02-06T15:10:11.755Z,60.6
2017-02-06T15:11:26.322Z,60.69
2017-02-06T15:12:40.457Z,60.75
2017-02-06T15:13:54.071Z,60.78
2017-02-06T15:15:08.162Z,60.88
2017-02-06T15:16:22.275Z,60.78
2017-02-06T15:17:36.160Z,60.78
2017-02-06T15:18:49.820Z,61.16
2017-02-06T15:20:03.898Z,61.52
2017-02-06T15:21:18.194Z,61.45
2017-02-06T15:22:31.873Z,61.07
2017-02-06T15:23:45.467Z,61.07
2017-02-06T15:25:00.241Z,60.75
2017-02-06T15:26:14.852Z,60.75
2017-02-06T15:27:28.332Z,60.57
2017-02-06T15:28:43.155Z,61.07
2017-02-06T15:29:57.086Z,61.32
2017-02-06T15:31:34.642Z,61.23
2017-02-06T15:32:48.797Z,61.42
2017-02-06T15:34:02.252Z,61.42
2017-02-06T15:35:15.925Z,61.42
2017-02-06T15:36:29.502Z,61.42
2017-02-06T15:37:43.088Z,61.23
2017-02-06T15:38:57.303Z,61.13
2017-02-06T15:40:11.807Z,61.42
2017-02-06T15:41:25.338Z,61.9
2017-02-06T15:42:39.430Z,62.08
2017-02-06T15:43:53.706Z,61.9
2017-02-06T15:45:08.024Z,62.37
2017-02-06T15:46:21.564Z,62.46
2017-02-06T15:47:35.137Z,62.56
2017-02-06T15:48:48.666Z,62.85
2017-02-06T15:50:02.277Z,62.75
2017-02-06T15:51:16.618Z,63.23
2017-02-06T15:52:30.198Z,62.94
2017-02-06T15:53:44.110Z,63.13
2017-02-06T15:55:15.087Z,63.6
2017-02-06T15:56:29.169Z,64.08
2017-02-06T15:57:43.582Z,64.14
2017-02-06T15:58:57.678Z,64.53
2017-02-06T16:00:11.649Z,65.09
2017-02-06T16:01:25.430Z,65.76
2017-02-06T16:02:39.315Z,65.57
2017-02-06T16:03:53.001Z,65.95
2017-02-06T16:05:06.506Z,66.24
2017-02-06T16:06:22.640Z,66.42
2017-02-06T16:07:36.297Z,67.28
2017-02-06T16:08:50.634Z,67.38
2017-02-06T16:10:04.127Z,67.66
2017-02-06T16:11:18.841Z,67.85
2017-02-06T16:12:32.339Z,68.33
2017-02-06T16:13:46.487Z,68.33